Weather at Ptuj Airfield

Public forecast

Using degrees Celsius for public forecast. Weather courtesy of forecast.io.

Closest aviation weather report (METAR) to Ptuj Airfield

Closest report is Maribor Airport, 12.8 nm (23.7 km) WNW.

2022/11/27 08:00 (retrieved 14 minutes ago)

LJMB 270800Z VRB01KT CAVOK 06/03 Q1030

Closest aviation forecast (TAF) to Ptuj Airfield

Closest forecast is Maribor Airport, 12.8 nm (23.7 km) WNW.

2022/11/27 06:06 (retrieved 2 hours ago)

TAF LJMB 270500Z 2706/2806 VRB02KT CAVOK BECMG 2723/2801 0500 FZFG TEMPO 2801/2806 0200 VV002